Iliysk North Airport

Jump to: basic info | weather | comments

Related pages: nearby airports | nearby navaids

Basic information (top)

Location: lon 43.998299, lat 77.139099, elev 2,343 ft / 714 m msl
Status: small_airport

Weather (top)

Current conditions for Almaty Airport 39nm (72km) S (rec'd 2014/11/23 21:30Z):

UAAA 232130Z 18002MPS 0500 R23R/1400U R23L/1300N FZFG FU SCT100 BKN200 M00/M02 Q1008 R88/65D NOSIG

Airport forecast for Almaty Airport 39nm (72km) S (rec'd 2014/11/23 18:18Z):

TAF TAF UAAA 231700Z 2318/2418 16004MPS 0600 FZFG FU SCT003 BKN100 TX08/2408Z TNM04/2401Z 
      TEMPO 2318/2405 0200 VV001 
      BECMG 2405/2406 24006MPS 3000 BR BKN030CB BKN100 
      TEMPO 2406/2412 28010MPS 5000 -SHRA BKN010CB OVC100 
      TEMPO 2412/2418 0600 FZRASN FG VV002

Latest comments (top)

No comments yet for Iliysk North Airport

More... (top)

See also NOTAMs and nearby airports and navaids, or visit the Iliysk North Airport page at the main OurAirports website..